createdAt,value
2019-01-22T00:00:51.030Z,-1.90
2019-01-22T00:01:51.055Z,-1.95
2019-01-22T00:02:51.010Z,-1.87
2019-01-22T00:03:51.037Z,-1.98
2019-01-22T00:04:50.998Z,-1.95
2019-01-22T00:05:50.979Z,-1.92
2019-01-22T00:06:50.989Z,-1.98
2019-01-22T00:07:50.954Z,-1.91
2019-01-22T00:08:51.002Z,-1.92
2019-01-22T00:09:50.933Z,-2.08
2019-01-22T00:10:50.924Z,-1.94
2019-01-22T00:11:50.937Z,-1.94
2019-01-22T00:12:50.927Z,-2.02
2019-01-22T00:13:50.900Z,-2.12
2019-01-22T00:14:50.901Z,-2.15
2019-01-22T00:15:50.884Z,-2.26
2019-01-22T00:16:51.017Z,-2.16
2019-01-22T00:17:50.860Z,-2.10
2019-01-22T00:18:50.885Z,-2.09
2019-01-22T00:19:50.877Z,-2.09
2019-01-22T00:20:50.846Z,-2.09
2019-01-22T00:21:50.810Z,-2.13
2019-01-22T00:22:50.799Z,-2.23
2019-01-22T00:23:50.795Z,-2.18
2019-01-22T00:24:50.772Z,-2.26
2019-01-22T00:25:50.819Z,-2.35
2019-01-22T00:26:50.754Z,-2.45
2019-01-22T00:27:50.749Z,-2.42
2019-01-22T00:28:50.766Z,-2.42
2019-01-22T00:29:50.727Z,-2.46
2019-01-22T00:30:50.715Z,-2.29
2019-01-22T00:31:50.747Z,-2.29
2019-01-22T00:32:50.691Z,-2.39
2019-01-22T00:33:50.689Z,-2.30
2019-01-22T00:34:50.678Z,-2.34
2019-01-22T00:35:50.701Z,-2.37
2019-01-22T00:36:50.640Z,-2.18
2019-01-22T00:37:50.732Z,-2.29
2019-01-22T00:38:50.628Z,-2.13
2019-01-22T00:39:50.611Z,-2.09
2019-01-22T00:40:50.607Z,-2.12
2019-01-22T00:41:50.605Z,-2.16
2019-01-22T00:42:50.609Z,-2.06
2019-01-22T00:43:50.571Z,-2.13
2019-01-22T00:44:50.561Z,-2.08
2019-01-22T00:45:50.565Z,-2.13
2019-01-22T00:46:50.538Z,-2.10
2019-01-22T00:47:50.588Z,-2.12
2019-01-22T00:48:50.518Z,-2.20
2019-01-22T00:49:50.508Z,-2.16
2019-01-22T00:50:50.498Z,-2.16
2019-01-22T00:51:50.488Z,-2.20
2019-01-22T00:52:50.521Z,-2.10
2019-01-22T00:53:50.466Z,-2.23
2019-01-22T00:54:50.467Z,-2.18
2019-01-22T00:55:50.442Z,-2.24
2019-01-22T00:56:50.435Z,-2.32
2019-01-22T00:57:50.432Z,-2.32
2019-01-22T00:58:50.442Z,-2.24
2019-01-22T00:59:50.402Z,-2.23
2019-01-22T01:00:50.441Z,-2.13
2019-01-22T01:01:50.385Z,-2.16
2019-01-22T01:02:50.367Z,-2.21
2019-01-22T01:03:50.385Z,-2.12
2019-01-22T01:04:50.367Z,-2.12
2019-01-22T01:05:50.350Z,-2.09
2019-01-22T01:06:50.334Z,-2.12
2019-01-22T01:07:50.309Z,-2.06
2019-01-22T01:08:50.349Z,-2.12
2019-01-22T01:09:50.306Z,-2.08
2019-01-22T01:10:50.283Z,-2.03
2019-01-22T01:11:50.275Z,-2.06
2019-01-22T01:12:50.264Z,-2.02
2019-01-22T01:13:50.255Z,-2.03
2019-01-22T01:14:50.276Z,-2.03
2019-01-22T01:15:50.230Z,-2.12
2019-01-22T01:16:50.222Z,-2.12
2019-01-22T01:17:50.209Z,-2.13
2019-01-22T01:18:50.197Z,-2.13
2019-01-22T01:19:50.283Z,-2.15
2019-01-22T01:20:50.182Z,-2.08
2019-01-22T01:21:50.168Z,-2.15
2019-01-22T01:22:50.160Z,-2.09
2019-01-22T01:23:50.149Z,-2.08
2019-01-22T01:24:50.133Z,-2.12
2019-01-22T01:25:50.142Z,-2.10
2019-01-22T01:26:50.123Z,-2.13
2019-01-22T01:27:50.104Z,-2.09
2019-01-22T01:28:50.116Z,-2.08
2019-01-22T01:29:50.083Z,-2.13
2019-01-22T01:30:50.071Z,-2.20
2019-01-22T01:31:50.084Z,-2.18
2019-01-22T01:32:50.073Z,-2.10
2019-01-22T01:33:50.034Z,-2.26
2019-01-22T01:34:50.023Z,-2.23
2019-01-22T01:35:50.020Z,-2.10
2019-01-22T01:36:50.060Z,-2.12
2019-01-22T01:37:49.995Z,-2.05
2019-01-22T01:38:49.978Z,-2.05
2019-01-22T01:39:49.977Z,-2.00
2019-01-22T01:40:49.963Z,-2.06
2019-01-22T01:41:49.961Z,-2.13
2019-01-22T01:42:49.971Z,-2.15
2019-01-22T01:43:49.933Z,-2.15
2019-01-22T01:44:49.915Z,-2.18
2019-01-22T01:45:49.917Z,-2.27
2019-01-22T01:46:49.895Z,-2.20
2019-01-22T01:47:49.904Z,-2.23
2019-01-22T01:48:49.877Z,-2.20
2019-01-22T01:49:49.867Z,-2.26
2019-01-22T01:50:49.848Z,-2.26
2019-01-22T01:51:49.845Z,-2.21
2019-01-22T01:52:49.904Z,-2.20
2019-01-22T01:53:49.834Z,-2.23
2019-01-22T01:54:49.809Z,-2.24
2019-01-22T01:55:49.792Z,-2.15
2019-01-22T01:56:49.784Z,-2.23
2019-01-22T01:57:49.776Z,-2.16
2019-01-22T01:58:49.790Z,-2.13
2019-01-22T01:59:49.753Z,-2.13
2019-01-22T02:00:49.744Z,-2.12
2019-01-22T02:01:49.735Z,-2.10
2019-01-22T02:02:49.746Z,-2.15
2019-01-22T02:03:49.744Z,-2.24
2019-01-22T02:04:49.703Z,-2.21
2019-01-22T02:05:49.694Z,-2.20
2019-01-22T02:06:49.682Z,-2.16
2019-01-22T02:07:49.665Z,-2.27
2019-01-22T02:08:49.660Z,-2.24
2019-01-22T02:09:49.666Z,-2.30
2019-01-22T02:10:49.644Z,-2.23
2019-01-22T02:11:49.625Z,-2.21
2019-01-22T02:12:49.617Z,-2.10
2019-01-22T02:13:49.617Z,-2.08
2019-01-22T02:14:49.645Z,-2.12
2019-01-22T02:15:49.581Z,-2.12
2019-01-22T02:16:49.575Z,-2.12
2019-01-22T02:17:49.557Z,-2.13
2019-01-22T02:18:49.559Z,-2.12
2019-01-22T02:19:49.547Z,-2.12
2019-01-22T02:20:49.552Z,-2.15
2019-01-22T02:21:49.514Z,-2.08
2019-01-22T02:22:49.522Z,-2.20
2019-01-22T02:23:49.494Z,-2.13
2019-01-22T02:24:49.487Z,-2.13
2019-01-22T02:25:49.502Z,-2.15
2019-01-22T02:26:49.464Z,-2.06
2019-01-22T02:27:49.460Z,-2.06
2019-01-22T02:28:49.449Z,-2.06
2019-01-22T02:29:49.436Z,-2.09
2019-01-22T02:30:49.470Z,-2.15
2019-01-22T02:31:49.462Z,-2.16
2019-01-22T02:32:49.397Z,-2.23
2019-01-22T02:33:49.388Z,-2.18
2019-01-22T02:34:49.377Z,-2.26
2019-01-22T02:35:49.371Z,-2.12
2019-01-22T02:36:49.354Z,-2.13
2019-01-22T02:37:49.372Z,-2.21
2019-01-22T02:38:49.331Z,-2.12
2019-01-22T02:39:49.333Z,-2.03
2019-01-22T02:40:49.342Z,-2.03
2019-01-22T02:41:49.321Z,-2.08
2019-01-22T02:42:49.293Z,-2.00
2019-01-22T02:43:49.355Z,-1.91
2019-01-22T02:44:49.272Z,-1.87
2019-01-22T02:45:49.265Z,-1.87
2019-01-22T02:46:49.257Z,-1.98
2019-01-22T02:47:49.235Z,-1.97
2019-01-22T02:48:49.233Z,-2.06
2019-01-22T02:49:49.276Z,-2.08
2019-01-22T02:50:49.205Z,-2.02
2019-01-22T02:51:49.195Z,-1.98
2019-01-22T02:52:49.202Z,-1.88
2019-01-22T02:53:49.182Z,-1.97
2019-01-22T02:54:49.164Z,-1.87
2019-01-22T02:55:49.204Z,-1.92
2019-01-22T02:56:49.138Z,-1.90
2019-01-22T02:57:49.180Z,-1.92
2019-01-22T02:58:49.124Z,-1.90
2019-01-22T02:59:49.112Z,-1.88
2019-01-22T03:00:49.097Z,-1.90
2019-01-22T03:01:49.137Z,-1.87
2019-01-22T03:02:49.078Z,-1.80
2019-01-22T03:03:49.098Z,-1.76
2019-01-22T03:04:49.050Z,-1.82
2019-01-22T03:05:49.042Z,-1.92
2019-01-22T03:06:49.046Z,-2.02
2019-01-22T03:07:49.037Z,-2.09
2019-01-22T03:08:49.048Z,-2.16
2019-01-22T03:09:48.999Z,-2.09
2019-01-22T03:10:48.990Z,-2.02
2019-01-22T03:11:48.975Z,-2.05
2019-01-22T03:12:48.963Z,-2.02
2019-01-22T03:13:48.983Z,-2.10
2019-01-22T03:14:48.952Z,-2.06
2019-01-22T03:15:48.940Z,-2.09
2019-01-22T03:16:48.924Z,-2.00
2019-01-22T03:17:48.908Z,-1.87
2019-01-22T03:18:48.900Z,-1.87
2019-01-22T03:19:48.921Z,-1.76
2019-01-22T03:20:48.885Z,-1.76
2019-01-22T03:21:48.876Z,-1.69
2019-01-22T03:22:48.876Z,-1.59
2019-01-22T03:23:48.848Z,-1.67
2019-01-22T03:24:48.865Z,-1.73
2019-01-22T03:25:48.833Z,-1.64
2019-01-22T03:26:48.814Z,-1.64
2019-01-22T03:27:48.805Z,-1.72
2019-01-22T03:28:48.794Z,-1.67
2019-01-22T03:29:48.804Z,-1.66
2019-01-22T03:30:48.785Z,-1.54
2019-01-22T03:31:48.765Z,-1.66
2019-01-22T03:32:48.781Z,-1.56
2019-01-22T03:33:48.748Z,-1.55
2019-01-22T03:34:48.735Z,-1.59
2019-01-22T03:35:48.727Z,-1.58
2019-01-22T03:36:48.734Z,-1.51
2019-01-22T03:37:48.695Z,-1.54
2019-01-22T03:38:48.686Z,-1.58
2019-01-22T03:39:48.679Z,-1.46
2019-01-22T03:40:48.667Z,-1.41
2019-01-22T03:41:48.711Z,-1.45
2019-01-22T03:42:48.655Z,-1.55
2019-01-22T03:43:48.628Z,-1.45
2019-01-22T03:44:51.267Z,-1.61
2019-01-22T03:45:48.615Z,-1.69
2019-01-22T03:46:48.599Z,-1.64
2019-01-22T03:47:48.648Z,-1.69
2019-01-22T03:48:48.574Z,-1.72
2019-01-22T03:49:48.568Z,-1.69
2019-01-22T03:50:48.552Z,-1.69
2019-01-22T03:51:48.545Z,-1.72
2019-01-22T03:52:48.544Z,-1.66
2019-01-22T03:53:53.692Z,-1.74
2019-01-22T03:54:49.563Z,-1.88
2019-01-22T03:55:48.501Z,-1.84
2019-01-22T03:56:48.491Z,-1.88
2019-01-22T03:57:48.778Z,-1.80
2019-01-22T03:58:48.468Z,-1.85
2019-01-22T03:59:48.470Z,-1.90
2019-01-22T04:00:48.480Z,-1.87
2019-01-22T04:01:48.438Z,-1.80
2019-01-22T04:02:48.419Z,-1.70
2019-01-22T04:03:48.429Z,-1.80
2019-01-22T04:04:48.405Z,-1.72
2019-01-22T04:05:48.419Z,-1.70
2019-01-22T04:06:48.392Z,-1.85
2019-01-22T04:07:48.366Z,-1.88
2019-01-22T04:08:48.381Z,-1.97
2019-01-22T04:09:48.356Z,-1.88
2019-01-22T04:10:48.344Z,-1.85
2019-01-22T04:11:48.323Z,-1.85
2019-01-22T04:12:48.316Z,-1.85
2019-01-22T04:13:48.333Z,-1.90
2019-01-22T04:14:48.304Z,-1.88
2019-01-22T04:15:48.297Z,-1.94
2019-01-22T04:16:48.303Z,-2.06
2019-01-22T04:17:48.262Z,-1.98
2019-01-22T04:18:48.281Z,-2.03
2019-01-22T04:19:48.239Z,-2.03
2019-01-22T04:20:48.235Z,-2.13
2019-01-22T04:21:48.242Z,-2.12
2019-01-22T04:22:48.203Z,-2.24
2019-01-22T04:23:48.209Z,-2.20
2019-01-22T04:24:48.239Z,-2.26
2019-01-22T04:25:48.175Z,-2.23
2019-01-22T04:26:48.167Z,-2.13
2019-01-22T04:27:48.156Z,-2.16
2019-01-22T04:28:48.149Z,-2.21
2019-01-22T04:29:48.151Z,-2.13
2019-01-22T04:30:48.159Z,-2.24
2019-01-22T04:31:48.123Z,-2.24
2019-01-22T04:32:48.125Z,-2.21
2019-01-22T04:33:48.092Z,-2.21
2019-01-22T04:34:48.086Z,-2.26
2019-01-22T04:35:48.072Z,-2.24
2019-01-22T04:36:48.056Z,-2.45
2019-01-22T04:37:48.080Z,-2.40
2019-01-22T04:38:48.113Z,-2.45
2019-01-22T04:39:48.057Z,-2.52
2019-01-22T04:40:48.010Z,-2.60
2019-01-22T04:41:48.031Z,-2.61
2019-01-22T04:42:47.993Z,-2.73
2019-01-22T04:43:47.982Z,-2.77
2019-01-22T04:44:48.032Z,-2.74
2019-01-22T04:45:47.963Z,-2.79
2019-01-22T04:46:47.978Z,-2.77
2019-01-22T04:47:47.940Z,-2.77
2019-01-22T04:48:47.928Z,-2.68
2019-01-22T04:49:47.916Z,-2.77
2019-01-22T04:50:47.906Z,-2.77
2019-01-22T04:51:47.929Z,-2.78
2019-01-22T04:52:47.892Z,-2.82
2019-01-22T04:53:47.898Z,-2.91
2019-01-22T04:54:47.908Z,-2.92
2019-01-22T04:55:47.850Z,-2.89
2019-01-22T04:56:47.873Z,-2.92
2019-01-22T04:57:47.863Z,-3.00
2019-01-22T04:58:47.816Z,-3.00
2019-01-22T04:59:47.814Z,-2.92
2019-01-22T05:00:47.797Z,-2.85
2019-01-22T05:01:47.791Z,-2.85
2019-01-22T05:02:47.822Z,-2.85
2019-01-22T05:03:47.773Z,-2.82
2019-01-22T05:04:47.752Z,-2.70
2019-01-22T05:05:47.745Z,-2.66
2019-01-22T05:06:47.777Z,-2.61
2019-01-22T05:07:47.728Z,-2.55
2019-01-22T05:08:47.785Z,-2.50
2019-01-22T05:09:47.712Z,-2.58
2019-01-22T05:10:47.691Z,-2.81
2019-01-22T05:11:47.698Z,-2.74
2019-01-22T05:12:47.724Z,-2.84
2019-01-22T05:13:47.666Z,-2.91
2019-01-22T05:14:47.650Z,-2.77
2019-01-22T05:15:47.635Z,-2.77
2019-01-22T05:16:47.625Z,-2.64
2019-01-22T05:17:47.630Z,-2.77
2019-01-22T05:18:47.633Z,-2.64
2019-01-22T05:19:47.598Z,-2.71
2019-01-22T05:20:47.587Z,-2.77
2019-01-22T05:21:47.582Z,-2.56
2019-01-22T05:22:47.557Z,-2.68
2019-01-22T05:23:47.608Z,-2.77
2019-01-22T05:24:47.540Z,-2.79
2019-01-22T05:25:47.531Z,-2.84
2019-01-22T05:26:47.522Z,-2.88
2019-01-22T05:27:47.521Z,-2.85
2019-01-22T05:28:47.507Z,-2.96
2019-01-22T05:29:47.512Z,-3.17
2019-01-22T05:30:47.479Z,-3.07
2019-01-22T05:31:47.464Z,-3.15
2019-01-22T05:32:47.502Z,-3.09
2019-01-22T05:33:47.509Z,-3.02
2019-01-22T05:34:47.433Z,-2.96
2019-01-22T05:35:47.423Z,-2.88
2019-01-22T05:36:47.414Z,-2.79
2019-01-22T05:37:47.400Z,-2.92
2019-01-22T05:38:47.388Z,-2.92
2019-01-22T05:39:47.401Z,-3.02
2019-01-22T05:40:47.368Z,-2.96
2019-01-22T05:41:47.352Z,-2.88
2019-01-22T05:42:47.355Z,-2.94
2019-01-22T05:43:47.330Z,-2.86
2019-01-22T05:44:47.362Z,-2.92
2019-01-22T05:45:47.312Z,-2.91
2019-01-22T05:46:47.299Z,-2.86
2019-01-22T05:47:47.289Z,-2.92
2019-01-22T05:48:47.275Z,-2.86
2019-01-22T05:49:47.298Z,-2.96
2019-01-22T05:50:47.281Z,-2.99
2019-01-22T05:51:47.327Z,-2.97
2019-01-22T05:52:47.239Z,-3.10
2019-01-22T05:53:47.229Z,-3.05
2019-01-22T05:54:47.224Z,-2.88
2019-01-22T05:55:47.210Z,-2.84
2019-01-22T05:56:47.207Z,-2.96
2019-01-22T05:57:47.202Z,-2.92
2019-01-22T05:58:47.168Z,-2.81
2019-01-22T05:59:48.106Z,-2.74
2019-01-22T06:00:47.169Z,-2.77
2019-01-22T06:01:47.255Z,-2.73
2019-01-22T06:02:47.133Z,-2.86
2019-01-22T06:03:47.169Z,-2.92
2019-01-22T06:04:47.148Z,-2.92
2019-01-22T06:05:47.161Z,-2.84
2019-01-22T06:06:47.091Z,-2.73
2019-01-22T06:07:47.085Z,-2.78
2019-01-22T06:08:47.072Z,-2.73
2019-01-22T06:09:47.068Z,-2.78
2019-01-22T06:10:47.050Z,-2.68
2019-01-22T06:11:47.061Z,-2.71
2019-01-22T06:12:47.021Z,-2.66
2019-01-22T06:13:47.027Z,-2.61
2019-01-22T06:14:47.001Z,-2.73
2019-01-22T06:15:46.994Z,-2.73
2019-01-22T06:16:47.005Z,-2.77
2019-01-22T06:17:46.980Z,-2.68
2019-01-22T06:18:46.996Z,-2.64
2019-01-22T06:19:46.952Z,-2.60
2019-01-22T06:20:46.946Z,-2.61
2019-01-22T06:21:46.928Z,-2.56
2019-01-22T06:22:46.915Z,-2.67
2019-01-22T06:23:46.901Z,-2.68
2019-01-22T06:24:46.924Z,-2.67
2019-01-22T06:25:49.632Z,-2.55
2019-01-22T06:26:46.867Z,-2.56
2019-01-22T06:27:46.863Z,-2.49
2019-01-22T06:28:46.852Z,-2.46
2019-01-22T06:29:46.868Z,-2.26
2019-01-22T06:30:46.829Z,-2.30
2019-01-22T06:31:46.821Z,-2.26
2019-01-22T06:32:46.826Z,-2.20
2019-01-22T06:33:46.806Z,-2.18
2019-01-22T06:34:46.810Z,-2.23
2019-01-22T06:35:46.785Z,-2.24
2019-01-22T06:36:46.765Z,-2.23
2019-01-22T06:37:46.761Z,-2.16
2019-01-22T06:38:46.742Z,-2.20
2019-01-22T06:39:46.733Z,-2.15
2019-01-22T06:40:46.744Z,-2.18
2019-01-22T06:41:46.758Z,-2.20
2019-01-22T06:42:46.710Z,-2.21
2019-01-22T06:43:46.683Z,-2.15
2019-01-22T06:44:46.678Z,-2.21
2019-01-22T06:45:46.706Z,-2.16
2019-01-22T06:46:46.678Z,-2.15
2019-01-22T06:47:46.654Z,-2.15
2019-01-22T06:48:46.691Z,-2.26
2019-01-22T06:49:46.626Z,-2.24
2019-01-22T06:50:46.621Z,-2.16
2019-01-22T06:51:46.602Z,-2.13
2019-01-22T06:52:46.599Z,-2.26
2019-01-22T06:53:46.586Z,-2.35
2019-01-22T06:54:46.593Z,-2.35
2019-01-22T06:55:46.568Z,-2.34
2019-01-22T06:56:46.549Z,-2.39
2019-01-22T06:57:46.531Z,-2.26
2019-01-22T06:58:46.528Z,-2.20
2019-01-22T06:59:46.512Z,-2.18
2019-01-22T07:00:46.528Z,-2.24
2019-01-22T07:01:46.494Z,-2.18
2019-01-22T07:02:46.478Z,-2.20
2019-01-22T07:03:46.474Z,-2.16
2019-01-22T07:04:46.460Z,-2.20
2019-01-22T07:05:46.473Z,-2.16
2019-01-22T07:06:46.438Z,-2.21
2019-01-22T07:07:46.436Z,-2.37
2019-01-22T07:08:46.412Z,-2.40
2019-01-22T07:09:46.412Z,-2.40
2019-01-22T07:10:46.440Z,-2.37
2019-01-22T07:11:46.387Z,-2.32
2019-01-22T07:12:46.379Z,-2.21
2019-01-22T07:13:46.361Z,-2.27
2019-01-22T07:14:46.355Z,-2.15
2019-01-22T07:15:46.337Z,-2.13
2019-01-22T07:16:46.383Z,-2.12
2019-01-22T07:17:46.351Z,-2.13
2019-01-22T07:18:46.319Z,-2.08
2019-01-22T07:19:46.293Z,-1.98
2019-01-22T07:20:46.288Z,-2.00
2019-01-22T07:21:46.333Z,-1.98
2019-01-22T07:22:46.272Z,-2.03
2019-01-22T07:23:46.256Z,-2.06
2019-01-22T07:24:46.842Z,-2.08
2019-01-22T07:25:46.263Z,-2.09
2019-01-22T07:26:46.497Z,-2.13
2019-01-22T07:27:46.242Z,-2.15
2019-01-22T07:28:46.206Z,-2.15
2019-01-22T07:29:46.204Z,-2.08
2019-01-22T07:30:46.184Z,-2.03
2019-01-22T07:31:46.192Z,-2.12
2019-01-22T07:32:46.204Z,-2.13
2019-01-22T07:33:46.148Z,-2.08
2019-01-22T07:34:46.137Z,-2.06
2019-01-22T07:35:46.127Z,-2.00
2019-01-22T07:36:46.121Z,-2.09
2019-01-22T07:37:46.099Z,-1.95
2019-01-22T07:38:46.135Z,-1.94
2019-01-22T07:39:46.170Z,-1.90
2019-01-22T07:40:46.078Z,-1.85
2019-01-22T07:41:46.060Z,-1.85
2019-01-22T07:42:46.047Z,-1.88
2019-01-22T07:43:46.041Z,-1.82
2019-01-22T07:44:46.022Z,-1.79
2019-01-22T07:45:46.087Z,-1.73
2019-01-22T07:46:46.014Z,-1.80
2019-01-22T07:47:45.993Z,-1.95
2019-01-22T07:48:45.979Z,-1.97
2019-01-22T07:49:45.972Z,-2.00
2019-01-22T07:50:45.981Z,-1.98
2019-01-22T07:51:45.982Z,-2.03
2019-01-22T07:52:45.938Z,-2.03
2019-01-22T07:53:45.927Z,-2.03
2019-01-22T07:54:45.931Z,-2.12
2019-01-22T07:55:45.919Z,-2.02
2019-01-22T07:56:45.915Z,-1.90
2019-01-22T07:57:45.879Z,-1.88
2019-01-22T07:58:45.872Z,-1.85
2019-01-22T07:59:45.869Z,-1.85
2019-01-22T08:00:45.872Z,-1.85
2019-01-22T08:01:45.925Z,-1.85
2019-01-22T08:02:45.836Z,-1.92
2019-01-22T08:03:45.819Z,-1.95
2019-01-22T08:04:45.811Z,-1.90
2019-01-22T08:05:45.803Z,-1.84
2019-01-22T08:06:45.790Z,-1.85
2019-01-22T08:07:45.805Z,-1.85
2019-01-22T08:08:45.765Z,-1.88
2019-01-22T08:09:45.755Z,-1.82
2019-01-22T08:10:45.740Z,-1.92
2019-01-22T08:11:45.735Z,-1.95
2019-01-22T08:12:45.745Z,-1.94
2019-01-22T08:13:45.725Z,-1.85
2019-01-22T08:14:45.700Z,-1.80
2019-01-22T08:15:45.720Z,-1.82
2019-01-22T08:16:45.675Z,-1.85
2019-01-22T08:17:45.679Z,-1.80
2019-01-22T08:18:45.679Z,-1.95
2019-01-22T08:19:45.649Z,-1.97
2019-01-22T08:20:45.626Z,-1.92
2019-01-22T08:21:45.618Z,-1.90
2019-01-22T08:22:45.616Z,-1.79
2019-01-22T08:23:45.625Z,-1.82
2019-01-22T08:24:45.584Z,-1.70
2019-01-22T08:25:45.577Z,-1.79
2019-01-22T08:26:45.564Z,-1.62
2019-01-22T08:27:45.577Z,-1.58
2019-01-22T08:28:45.581Z,-1.58
2019-01-22T08:29:45.551Z,-1.54
2019-01-22T08:30:45.529Z,-1.59
2019-01-22T08:31:45.515Z,-1.66
2019-01-22T08:32:45.503Z,-1.64
2019-01-22T08:33:45.921Z,-1.52
2019-01-22T08:34:45.558Z,-1.67
2019-01-22T08:35:45.486Z,-1.70
2019-01-22T08:36:45.457Z,-1.79
2019-01-22T08:37:45.451Z,-1.70
2019-01-22T08:38:45.434Z,-1.79
2019-01-22T08:39:45.422Z,-1.70
2019-01-22T08:40:45.445Z,-1.82
2019-01-22T08:41:45.397Z,-1.62
2019-01-22T08:42:45.389Z,-1.69
2019-01-22T08:43:45.377Z,-1.59
2019-01-22T08:44:45.396Z,-1.45
2019-01-22T08:45:45.358Z,-1.41
2019-01-22T08:46:45.404Z,-1.34
2019-01-22T08:47:45.332Z,-1.30
2019-01-22T18:42:06.408Z,-0.55
2019-01-22T18:42:37.116Z,-0.61
2019-01-22T18:43:37.108Z,-0.61
2019-01-22T18:44:37.109Z,-0.58
2019-01-22T18:45:37.088Z,-0.72
2019-01-22T18:46:37.100Z,-0.79
2019-01-22T18:47:37.067Z,-0.78
2019-01-22T18:48:37.050Z,-0.76
2019-01-22T18:49:37.046Z,-0.79
2019-01-22T18:50:37.029Z,-0.80
2019-01-22T18:51:37.045Z,-0.73
2019-01-22T18:52:37.004Z,-0.79
2019-01-22T18:53:36.999Z,-0.72
2019-01-22T18:54:36.990Z,-0.65
2019-01-22T18:55:36.977Z,-0.72
2019-01-22T18:56:37.043Z,-0.69
2019-01-22T18:57:36.954Z,-0.62
2019-01-22T18:58:36.947Z,-0.72
2019-01-22T18:59:37.083Z,-0.65
2019-01-22T19:00:36.923Z,-0.70
2019-01-22T19:01:37.050Z,-0.60
2019-01-22T19:02:36.939Z,-0.75
2019-01-22T19:03:36.984Z,-0.78
2019-01-22T19:04:36.879Z,-0.82
2019-01-22T19:05:36.863Z,-0.85
2019-01-22T19:06:36.852Z,-0.79
2019-01-22T19:07:37.028Z,-0.86
2019-01-22T19:08:36.829Z,-0.95
2019-01-22T19:09:36.818Z,-0.85
2019-01-22T19:10:36.813Z,-0.91
2019-01-22T19:11:36.799Z,-0.80
2019-01-22T19:12:36.860Z,-0.76
2019-01-22T19:13:36.783Z,-0.79
2019-01-22T19:14:36.767Z,-0.95
2019-01-22T19:15:36.757Z,-0.86
2019-01-22T19:16:36.886Z,-0.86
2019-01-22T19:17:36.744Z,-0.94
2019-01-22T19:18:37.000Z,-0.83
2019-01-22T19:19:36.713Z,-0.79
2019-01-22T19:20:36.702Z,-0.86
2019-01-22T19:21:36.696Z,-0.78
2019-01-22T19:22:36.796Z,-0.76
2019-01-22T19:23:36.700Z,-0.86
2019-01-22T19:24:36.776Z,-0.82
2019-01-22T19:25:36.659Z,-0.80
2019-01-22T19:26:36.641Z,-0.82
2019-01-22T19:27:36.626Z,-0.86
2019-01-22T19:28:36.643Z,-0.82
2019-01-22T19:29:36.604Z,-0.79
2019-01-22T19:30:36.588Z,-0.86
2019-01-22T19:31:36.587Z,-0.82
2019-01-22T19:32:36.571Z,-0.85
2019-01-22T19:33:36.597Z,-0.92
2019-01-22T19:34:36.570Z,-0.94
2019-01-22T19:35:36.568Z,-0.92
2019-01-22T19:36:36.527Z,-0.99
2019-01-22T19:37:36.522Z,-0.99
2019-01-22T19:38:36.677Z,-0.85
2019-01-22T19:39:36.521Z,-0.86
2019-01-22T19:40:36.530Z,-0.80
2019-01-22T19:41:36.497Z,-0.86
2019-01-22T19:42:36.465Z,-0.78
2019-01-22T19:43:36.445Z,-0.85
2019-01-22T19:44:36.444Z,-0.92
2019-01-22T19:45:36.437Z,-0.86
2019-01-22T19:46:36.441Z,-0.97
2019-01-22T19:47:36.566Z,-0.94
2019-01-22T19:48:36.391Z,-0.99
2019-01-22T19:49:36.391Z,-1.10
2019-01-22T19:50:36.401Z,-1.10
2019-01-22T19:51:36.367Z,-0.97
2019-01-22T19:52:36.354Z,-1.09
2019-01-22T19:53:36.448Z,-1.04
2019-01-22T19:54:36.360Z,-1.01
2019-01-22T19:55:36.319Z,-0.97
2019-01-22T19:56:36.306Z,-0.92
2019-01-22T19:57:40.992Z,-0.97
2019-01-22T19:58:37.336Z,-1.02
2019-01-22T19:59:36.270Z,-1.07
2019-01-22T20:00:36.268Z,-1.01
2019-01-22T20:01:36.270Z,-1.05
2019-01-22T20:02:36.240Z,-0.97
2019-01-22T20:03:36.229Z,-1.02
2019-01-22T20:04:36.271Z,-1.09
2019-01-22T20:05:36.207Z,-1.09
2019-01-22T20:06:36.200Z,-1.12
2019-01-22T20:07:36.190Z,-1.07
2019-01-22T20:08:36.188Z,-1.17
2019-01-22T20:09:36.172Z,-1.12
2019-01-22T20:10:36.205Z,-1.30
2019-01-22T20:11:36.162Z,-1.28
2019-01-22T20:12:36.186Z,-1.37
2019-01-22T20:13:36.146Z,-1.38
2019-01-22T20:14:36.297Z,-1.40
2019-01-22T20:15:36.107Z,-1.30
2019-01-22T20:16:36.118Z,-1.34
2019-01-22T20:17:36.082Z,-1.41
2019-01-22T20:18:36.068Z,-1.35
2019-01-22T20:19:36.231Z,-1.28
2019-01-22T20:20:36.045Z,-1.38
2019-01-22T20:21:36.083Z,-1.34
2019-01-22T20:22:36.024Z,-1.37
2019-01-22T20:23:36.270Z,-1.37
2019-01-22T20:24:36.009Z,-1.41
2019-01-22T20:25:36.188Z,-1.37
2019-01-22T20:26:35.980Z,-1.43
2019-01-22T20:27:36.006Z,-1.35
2019-01-22T20:28:35.985Z,-1.40
2019-01-22T20:29:36.028Z,-1.40
2019-01-22T20:30:36.089Z,-1.48
2019-01-22T20:31:35.931Z,-1.59
2019-01-22T20:32:35.920Z,-1.58
2019-01-22T20:33:35.949Z,-1.55
2019-01-22T20:34:36.025Z,-1.48
2019-01-22T20:35:35.888Z,-1.49
2019-01-22T20:36:35.875Z,-1.43
2019-01-22T20:37:35.861Z,-1.51
2019-01-22T20:38:36.070Z,-1.48
2019-01-22T20:39:35.852Z,-1.45
2019-01-22T20:40:35.995Z,-1.43
2019-01-22T20:41:35.826Z,-1.40
2019-01-22T20:42:35.803Z,-1.40
2019-01-22T20:43:35.800Z,-1.30
2019-01-22T20:44:36.096Z,-1.35
2019-01-22T20:45:35.776Z,-1.25
2019-01-22T20:46:35.763Z,-1.37
2019-01-22T20:47:35.756Z,-1.38
2019-01-22T20:48:35.738Z,-1.33
2019-01-22T20:49:35.745Z,-1.40
2019-01-22T20:50:35.775Z,-1.41
2019-01-22T20:51:35.723Z,-1.34
2019-01-22T20:52:35.700Z,-1.35
2019-01-22T20:53:35.696Z,-1.45
2019-01-22T20:54:35.687Z,-1.54
2019-01-22T20:55:35.708Z,-1.58
2019-01-22T20:56:35.660Z,-1.61
2019-01-22T20:57:35.643Z,-1.61
2019-01-22T20:58:40.497Z,-1.52
2019-01-22T20:59:36.617Z,-1.59
2019-01-22T21:00:35.645Z,-1.66
2019-01-22T21:01:35.828Z,-1.66
2019-01-22T21:02:35.589Z,-1.62
2019-01-22T21:03:35.576Z,-1.67
2019-01-22T21:04:35.567Z,-1.62
2019-01-22T21:05:35.558Z,-1.58
2019-01-22T21:06:35.732Z,-1.58
2019-01-22T21:07:35.539Z,-1.61
2019-01-22T21:08:35.522Z,-1.61
2019-01-22T21:09:35.518Z,-1.67
2019-01-22T21:10:35.528Z,-1.74
2019-01-22T21:11:35.559Z,-1.62
2019-01-22T21:12:35.475Z,-1.76
2019-01-22T21:13:35.486Z,-1.69
2019-01-22T21:14:35.461Z,-1.74
2019-01-22T21:15:35.455Z,-1.73
2019-01-22T21:16:35.633Z,-1.76
2019-01-22T21:17:35.481Z,-1.73
2019-01-22T21:18:35.427Z,-1.74
2019-01-22T21:19:35.416Z,-1.62
2019-01-22T21:20:35.415Z,-1.72
2019-01-22T21:21:35.374Z,-1.73
2019-01-22T21:22:35.374Z,-1.80
2019-01-22T21:23:35.397Z,-1.90
2019-01-22T21:24:35.368Z,-1.90
2019-01-22T21:25:35.335Z,-1.94
2019-01-22T21:26:35.374Z,-1.95
2019-01-22T21:27:35.319Z,-1.97
2019-01-22T21:28:35.347Z,-2.00
2019-01-22T21:29:35.304Z,-1.98
2019-01-22T21:30:35.282Z,-2.03
2019-01-22T21:31:35.274Z,-1.98
2019-01-22T21:32:35.301Z,-2.12
2019-01-22T21:33:35.253Z,-2.16
2019-01-22T21:34:35.233Z,-2.20
2019-01-22T21:35:35.234Z,-2.13
2019-01-22T21:36:35.216Z,-2.21
2019-01-22T21:37:35.239Z,-2.23
2019-01-22T21:38:35.207Z,-2.20
2019-01-22T21:39:35.188Z,-2.20
2019-01-22T21:40:35.210Z,-2.24
2019-01-22T21:41:35.163Z,-2.34
2019-01-22T21:42:35.155Z,-2.24
2019-01-22T21:43:35.213Z,-2.27
2019-01-22T21:44:35.130Z,-2.24
2019-01-22T21:45:35.120Z,-2.23
2019-01-22T21:46:35.114Z,-2.21
2019-01-22T21:47:35.094Z,-2.32
2019-01-22T21:48:35.088Z,-2.32
2019-01-22T21:49:35.100Z,-2.35
2019-01-22T21:50:35.060Z,-2.27
2019-01-22T21:51:35.053Z,-2.26
2019-01-22T21:52:35.053Z,-2.15
2019-01-22T21:53:35.034Z,-2.23
2019-01-22T21:54:35.066Z,-2.27
2019-01-22T21:55:35.015Z,-2.32
2019-01-22T21:56:35.081Z,-2.37
2019-01-22T21:57:34.999Z,-2.37
2019-01-22T21:58:34.985Z,-2.34
2019-01-22T21:59:34.972Z,-2.35
2019-01-22T22:00:34.955Z,-2.39
2019-01-22T22:01:34.947Z,-2.40
2019-01-22T22:02:35.059Z,-2.48
2019-01-22T22:03:34.928Z,-2.60
2019-01-22T22:04:34.921Z,-2.61
2019-01-22T22:05:34.926Z,-2.64
2019-01-22T22:06:34.924Z,-2.60
2019-01-22T22:07:34.971Z,-2.66
2019-01-22T22:08:34.982Z,-2.61
2019-01-22T22:09:34.960Z,-2.77
2019-01-22T22:10:34.934Z,-2.81
2019-01-22T22:11:35.147Z,-2.79
2019-01-22T22:12:34.879Z,-2.78
2019-01-22T22:13:34.891Z,-2.66
2019-01-22T22:14:34.938Z,-2.64
2019-01-22T22:15:34.853Z,-2.60
2019-01-22T22:16:34.864Z,-2.61
2019-01-22T22:17:34.956Z,-2.56
2019-01-22T22:18:34.875Z,-2.64
2019-01-22T22:19:34.754Z,-2.71
2019-01-22T22:20:34.743Z,-2.71
2019-01-22T22:21:34.729Z,-2.67
2019-01-22T22:22:34.742Z,-2.61
2019-01-22T22:23:34.710Z,-2.71
2019-01-22T22:24:35.403Z,-2.82
2019-01-22T22:25:34.694Z,-2.73
2019-01-22T22:26:34.689Z,-2.74
2019-01-22T22:27:35.416Z,-2.74
2019-01-22T22:28:34.687Z,-2.63
2019-01-22T22:29:34.653Z,-2.61
2019-01-22T22:30:34.645Z,-2.52
2019-01-22T22:31:34.642Z,-2.60
2019-01-22T22:32:35.985Z,-2.61
2019-01-22T22:33:34.605Z,-2.73
2019-01-22T22:34:34.594Z,-2.86
2019-01-22T22:35:34.585Z,-2.85
2019-01-22T22:36:34.577Z,-2.84
2019-01-22T22:37:34.717Z,-2.86
2019-01-22T22:38:34.549Z,-2.94
2019-01-22T22:39:34.541Z,-2.82
2019-01-22T22:40:34.529Z,-2.82
2019-01-22T22:41:34.519Z,-2.85
2019-01-22T22:42:34.517Z,-2.81
2019-01-22T22:43:34.538Z,-2.85
2019-01-22T22:44:34.484Z,-2.74
2019-01-22T22:45:34.521Z,-2.77